sensor_id;sensor_type;location;lat;lon;timestamp;P1;durP1;ratioP1;P2;durP2;ratioP2
5157;SDS011;2598;52.364;9.772;2023-05-20T16:32:25;7.30;;;3.60;;
5157;SDS011;2598;52.364;9.772;2023-05-20T16:34:51;9.03;;;4.60;;
5157;SDS011;2598;52.364;9.772;2023-05-20T16:37:18;7.93;;;4.07;;
5157;SDS011;2598;52.364;9.772;2023-05-20T16:39:44;8.47;;;3.80;;
5157;SDS011;2598;52.364;9.772;2023-05-20T16:42:10;8.90;;;4.30;;
5157;SDS011;2598;52.364;9.772;2023-05-20T16:44:36;7.83;;;3.70;;
5157;SDS011;2598;52.364;9.772;2023-05-20T16:47:05;6.23;;;3.73;;
5157;SDS011;2598;52.364;9.772;2023-05-20T16:49:31;9.10;;;3.80;;
5157;SDS011;2598;52.364;9.772;2023-05-20T16:51:58;8.47;;;2.93;;
5157;SDS011;2598;52.364;9.772;2023-05-20T16:54:23;7.07;;;3.63;;
5157;SDS011;2598;52.364;9.772;2023-05-20T16:56:50;7.23;;;3.67;;
5157;SDS011;2598;52.364;9.772;2023-05-20T16:59:16;7.43;;;4.07;;
5157;SDS011;2598;52.364;9.772;2023-05-20T17:01:42;9.63;;;3.80;;
5157;SDS011;2598;52.364;9.772;2023-05-20T17:04:08;9.20;;;3.90;;
5157;SDS011;2598;52.364;9.772;2023-05-20T17:06:35;5.80;;;3.47;;
5157;SDS011;2598;52.364;9.772;2023-05-20T17:09:03;9.90;;;3.50;;
5157;SDS011;2598;52.364;9.772;2023-05-20T17:11:30;5.70;;;3.20;;
5157;SDS011;2598;52.364;9.772;2023-05-20T17:13:56;5.93;;;3.20;;
5157;SDS011;2598;52.364;9.772;2023-05-20T17:16:22;6.80;;;3.40;;
5157;SDS011;2598;52.364;9.772;2023-05-20T17:18:48;6.70;;;3.27;;
5157;SDS011;2598;52.364;9.772;2023-05-20T17:21:14;6.73;;;3.33;;
5157;SDS011;2598;52.364;9.772;2023-05-20T17:23:44;5.63;;;3.20;;
5157;SDS011;2598;52.364;9.772;2023-05-20T17:26:10;6.17;;;3.43;;
5157;SDS011;2598;52.364;9.772;2023-05-20T17:28:36;7.27;;;3.30;;
5157;SDS011;2598;52.364;9.772;2023-05-20T17:31:02;9.60;;;3.73;;
5157;SDS011;2598;52.364;9.772;2023-05-20T17:33:28;7.10;;;3.77;;
5157;SDS011;2598;52.364;9.772;2023-05-20T17:35:53;6.27;;;3.70;;
5157;SDS011;2598;52.364;9.772;2023-05-20T17:38:19;5.70;;;3.50;;
5157;SDS011;2598;52.364;9.772;2023-05-20T17:40:46;5.73;;;3.43;;
5157;SDS011;2598;52.364;9.772;2023-05-20T17:43:12;6.53;;;3.70;;
5157;SDS011;2598;52.364;9.772;2023-05-20T17:45:38;6.53;;;4.07;;
5157;SDS011;2598;52.364;9.772;2023-05-20T17:48:04;8.40;;;3.17;;
5157;SDS011;2598;52.364;9.772;2023-05-20T17:50:31;7.47;;;3.60;;
5157;SDS011;2598;52.364;9.772;2023-05-20T17:52:57;5.77;;;3.47;;
5157;SDS011;2598;52.364;9.772;2023-05-20T17:55:23;6.53;;;3.57;;
5157;SDS011;2598;52.364;9.772;2023-05-20T17:57:49;8.10;;;3.73;;
5157;SDS011;2598;52.364;9.772;2023-05-20T18:00:15;5.90;;;3.47;;
5157;SDS011;2598;52.364;9.772;2023-05-20T18:02:45;6.60;;;3.63;;
5157;SDS011;2598;52.364;9.772;2023-05-20T18:05:12;6.97;;;4.20;;
5157;SDS011;2598;52.364;9.772;2023-05-20T18:07:38;12.70;;;3.50;;
5157;SDS011;2598;52.364;9.772;2023-05-20T18:10:04;5.67;;;3.23;;
5157;SDS011;2598;52.364;9.772;2023-05-20T18:12:31;6.50;;;3.80;;
5157;SDS011;2598;52.364;9.772;2023-05-20T18:14:57;7.70;;;3.73;;
5157;SDS011;2598;52.364;9.772;2023-05-20T18:17:22;9.30;;;3.60;;
5157;SDS011;2598;52.364;9.772;2023-05-20T18:19:48;6.53;;;3.53;;
5157;SDS011;2598;52.364;9.772;2023-05-20T18:22:14;7.57;;;3.80;;
5157;SDS011;2598;52.364;9.772;2023-05-20T18:24:40;7.53;;;3.10;;
5157;SDS011;2598;52.364;9.772;2023-05-20T18:27:06;7.53;;;3.47;;
5157;SDS011;2598;52.364;9.772;2023-05-20T18:29:32;6.40;;;3.10;;
5157;SDS011;2598;52.364;9.772;2023-05-20T18:31:58;7.00;;;3.50;;
5157;SDS011;2598;52.364;9.772;2023-05-20T18:34:24;6.07;;;3.10;;
5157;SDS011;2598;52.364;9.772;2023-05-20T18:36:50;8.67;;;3.90;;
5157;SDS011;2598;52.364;9.772;2023-05-20T18:39:16;5.93;;;3.23;;
5157;SDS011;2598;52.364;9.772;2023-05-20T18:41:47;6.67;;;3.67;;
5157;SDS011;2598;52.364;9.772;2023-05-20T18:44:13;8.40;;;4.20;;
5157;SDS011;2598;52.364;9.772;2023-05-20T18:46:39;6.30;;;3.63;;
5157;SDS011;2598;52.364;9.772;2023-05-20T18:49:05;7.10;;;4.00;;
5157;SDS011;2598;52.364;9.772;2023-05-20T18:51:31;6.77;;;3.40;;
5157;SDS011;2598;52.364;9.772;2023-05-20T18:53:58;6.30;;;3.60;;
5157;SDS011;2598;52.364;9.772;2023-05-20T18:56:24;7.40;;;3.60;;
5157;SDS011;2598;52.364;9.772;2023-05-20T18:58:50;7.90;;;4.23;;
5157;SDS011;2598;52.364;9.772;2023-05-20T19:01:16;6.10;;;3.70;;
5157;SDS011;2598;52.364;9.772;2023-05-20T19:03:42;7.63;;;3.63;;
5157;SDS011;2598;52.364;9.772;2023-05-20T19:06:09;8.73;;;4.40;;
5157;SDS011;2598;52.364;9.772;2023-05-20T19:08:37;7.10;;;3.90;;
5157;SDS011;2598;52.364;9.772;2023-05-20T19:11:03;7.10;;;3.70;;
5157;SDS011;2598;52.364;9.772;2023-05-20T19:13:29;6.50;;;3.50;;
5157;SDS011;2598;52.364;9.772;2023-05-20T19:15:55;6.13;;;3.33;;
5157;SDS011;2598;52.364;9.772;2023-05-20T19:18:25;9.00;;;4.10;;
5157;SDS011;2598;52.364;9.772;2023-05-20T19:20:52;6.57;;;3.70;;
5157;SDS011;2598;52.364;9.772;2023-05-20T19:23:18;5.73;;;3.50;;
5157;SDS011;2598;52.364;9.772;2023-05-20T19:25:44;8.90;;;4.80;;
5157;SDS011;2598;52.364;9.772;2023-05-20T19:28:09;8.20;;;4.50;;
5157;SDS011;2598;52.364;9.772;2023-05-20T19:30:35;7.90;;;4.27;;
5157;SDS011;2598;52.364;9.772;2023-05-20T19:33:02;7.17;;;4.50;;
5157;SDS011;2598;52.364;9.772;2023-05-20T19:35:28;9.43;;;4.67;;
5157;SDS011;2598;52.364;9.772;2023-05-20T19:37:54;8.80;;;4.33;;
5157;SDS011;2598;52.364;9.772;2023-05-20T19:40:20;9.37;;;4.10;;
5157;SDS011;2598;52.364;9.772;2023-05-20T19:42:46;8.33;;;4.40;;
5157;SDS011;2598;52.364;9.772;2023-05-20T19:45:12;7.03;;;3.60;;
5157;SDS011;2598;52.364;9.772;2023-05-20T19:47:38;6.20;;;3.43;;
5157;SDS011;2598;52.364;9.772;2023-05-20T19:50:04;9.10;;;4.33;;
5157;SDS011;2598;52.364;9.772;2023-05-20T19:52:30;7.47;;;4.17;;
5157;SDS011;2598;52.364;9.772;2023-05-20T19:54:56;6.63;;;3.70;;
5157;SDS011;2598;52.364;9.772;2023-05-20T19:57:22;5.80;;;3.80;;
5157;SDS011;2598;52.364;9.772;2023-05-20T19:59:48;6.90;;;4.23;;
5157;SDS011;2598;52.364;9.772;2023-05-20T20:02:14;9.80;;;4.50;;
5157;SDS011;2598;52.364;9.772;2023-05-20T20:04:40;7.10;;;4.17;;
5157;SDS011;2598;52.364;9.772;2023-05-20T20:07:06;6.93;;;4.07;;
5157;SDS011;2598;52.364;9.772;2023-05-20T20:09:33;7.47;;;4.03;;
5157;SDS011;2598;52.364;9.772;2023-05-20T20:11:59;8.50;;;4.20;;
5157;SDS011;2598;52.364;9.772;2023-05-20T20:14:26;7.20;;;3.90;;
5157;SDS011;2598;52.364;9.772;2023-05-20T20:16:52;6.10;;;4.20;;
5157;SDS011;2598;52.364;9.772;2023-05-20T20:19:18;6.77;;;4.10;;
5157;SDS011;2598;52.364;9.772;2023-05-20T20:21:46;6.67;;;4.20;;
5157;SDS011;2598;52.364;9.772;2023-05-20T20:24:12;7.70;;;4.20;;
5157;SDS011;2598;52.364;9.772;2023-05-20T20:26:39;6.80;;;4.13;;
5157;SDS011;2598;52.364;9.772;2023-05-20T20:29:05;7.00;;;4.50;;
5157;SDS011;2598;52.364;9.772;2023-05-20T20:31:31;6.80;;;4.73;;
5157;SDS011;2598;52.364;9.772;2023-05-20T20:33:57;7.00;;;4.47;;
5157;SDS011;2598;52.364;9.772;2023-05-20T20:36:23;8.90;;;5.10;;
5157;SDS011;2598;52.364;9.772;2023-05-20T20:38:49;8.43;;;4.93;;
5157;SDS011;2598;52.364;9.772;2023-05-20T20:41:15;8.63;;;5.00;;
5157;SDS011;2598;52.364;9.772;2023-05-20T20:43:44;8.90;;;5.00;;
5157;SDS011;2598;52.364;9.772;2023-05-20T20:46:10;8.37;;;5.30;;
5157;SDS011;2598;52.364;9.772;2023-05-20T20:48:40;9.93;;;4.87;;
5157;SDS011;2598;52.364;9.772;2023-05-20T20:51:09;8.50;;;5.37;;
5157;SDS011;2598;52.364;9.772;2023-05-20T20:53:35;8.20;;;5.13;;
5157;SDS011;2598;52.364;9.772;2023-05-20T20:56:01;8.17;;;4.83;;
5157;SDS011;2598;52.364;9.772;2023-05-20T20:58:27;8.73;;;5.20;;
5157;SDS011;2598;52.364;9.772;2023-05-20T21:00:53;9.53;;;5.37;;
5157;SDS011;2598;52.364;9.772;2023-05-20T21:03:19;6.90;;;4.50;;
5157;SDS011;2598;52.364;9.772;2023-05-20T21:05:47;9.23;;;5.07;;
5157;SDS011;2598;52.364;9.772;2023-05-20T21:08:14;7.80;;;4.63;;
5157;SDS011;2598;52.364;9.772;2023-05-20T21:10:40;8.60;;;5.27;;
5157;SDS011;2598;52.364;9.772;2023-05-20T21:13:06;9.13;;;5.20;;
5157;SDS011;2598;52.364;9.772;2023-05-20T21:15:32;9.20;;;5.33;;
5157;SDS011;2598;52.364;9.772;2023-05-20T21:17:57;9.97;;;5.70;;
5157;SDS011;2598;52.364;9.772;2023-05-20T21:20:23;10.10;;;5.57;;
5157;SDS011;2598;52.364;9.772;2023-05-20T21:22:49;8.40;;;5.47;;
5157;SDS011;2598;52.364;9.772;2023-05-20T21:25:15;13.40;;;5.77;;
5157;SDS011;2598;52.364;9.772;2023-05-20T21:27:41;9.17;;;6.10;;
5157;SDS011;2598;52.364;9.772;2023-05-20T21:30:08;8.27;;;5.60;;
5157;SDS011;2598;52.364;9.772;2023-05-20T21:32:34;10.23;;;6.07;;
5157;SDS011;2598;52.364;9.772;2023-05-20T21:35:00;9.53;;;6.17;;
5157;SDS011;2598;52.364;9.772;2023-05-20T21:37:25;9.30;;;6.20;;
5157;SDS011;2598;52.364;9.772;2023-05-20T21:39:51;10.10;;;6.07;;
5157;SDS011;2598;52.364;9.772;2023-05-20T21:42:17;9.97;;;6.80;;
5157;SDS011;2598;52.364;9.772;2023-05-20T21:44:43;9.90;;;5.77;;
5157;SDS011;2598;52.364;9.772;2023-05-20T21:47:09;10.23;;;6.80;;
5157;SDS011;2598;52.364;9.772;2023-05-20T21:49:35;9.37;;;6.00;;
5157;SDS011;2598;52.364;9.772;2023-05-20T21:52:01;10.93;;;6.33;;
5157;SDS011;2598;52.364;9.772;2023-05-20T21:54:27;9.03;;;6.20;;
5157;SDS011;2598;52.364;9.772;2023-05-20T21:56:53;10.70;;;5.53;;
5157;SDS011;2598;52.364;9.772;2023-05-20T21:59:19;9.97;;;6.67;;
5157;SDS011;2598;52.364;9.772;2023-05-20T22:01:45;12.20;;;6.60;;
5157;SDS011;2598;52.364;9.772;2023-05-20T22:04:11;10.40;;;6.83;;
5157;SDS011;2598;52.364;9.772;2023-05-20T22:06:36;10.10;;;6.70;;
5157;SDS011;2598;52.364;9.772;2023-05-20T22:09:03;10.50;;;6.67;;
5157;SDS011;2598;52.364;9.772;2023-05-20T22:11:29;10.13;;;6.90;;
5157;SDS011;2598;52.364;9.772;2023-05-20T22:13:55;11.10;;;7.10;;
5157;SDS011;2598;52.364;9.772;2023-05-20T22:16:23;9.53;;;6.67;;
5157;SDS011;2598;52.364;9.772;2023-05-20T22:18:49;9.90;;;7.30;;
5157;SDS011;2598;52.364;9.772;2023-05-20T22:21:17;14.17;;;6.83;;
5157;SDS011;2598;52.364;9.772;2023-05-20T22:23:45;10.30;;;6.90;;
5157;SDS011;2598;52.364;9.772;2023-05-20T22:26:11;9.80;;;6.80;;
5157;SDS011;2598;52.364;9.772;2023-05-20T22:28:38;9.23;;;6.40;;
5157;SDS011;2598;52.364;9.772;2023-05-20T22:31:03;12.13;;;6.03;;
5157;SDS011;2598;52.364;9.772;2023-05-20T22:33:30;12.20;;;6.87;;
5157;SDS011;2598;52.364;9.772;2023-05-20T22:35:56;10.77;;;6.40;;
5157;SDS011;2598;52.364;9.772;2023-05-20T22:38:22;10.90;;;6.87;;
5157;SDS011;2598;52.364;9.772;2023-05-20T22:40:48;10.53;;;6.73;;
5157;SDS011;2598;52.364;9.772;2023-05-20T22:43:14;10.03;;;6.63;;
5157;SDS011;2598;52.364;9.772;2023-05-20T22:45:40;10.10;;;6.20;;
5157;SDS011;2598;52.364;9.772;2023-05-20T22:48:06;11.83;;;6.77;;
5157;SDS011;2598;52.364;9.772;2023-05-20T22:50:32;11.90;;;7.03;;
5157;SDS011;2598;52.364;9.772;2023-05-20T22:52:59;13.37;;;6.27;;
5157;SDS011;2598;52.364;9.772;2023-05-20T22:55:26;10.33;;;6.80;;
5157;SDS011;2598;52.364;9.772;2023-05-20T22:57:52;9.30;;;6.70;;
5157;SDS011;2598;52.364;9.772;2023-05-20T23:00:17;10.53;;;6.70;;
5157;SDS011;2598;52.364;9.772;2023-05-20T23:02:44;11.80;;;7.17;;
5157;SDS011;2598;52.364;9.772;2023-05-20T23:05:13;10.43;;;7.20;;
5157;SDS011;2598;52.364;9.772;2023-05-20T23:07:39;9.33;;;6.30;;
5157;SDS011;2598;52.364;9.772;2023-05-20T23:10:05;16.27;;;6.73;;
5157;SDS011;2598;52.364;9.772;2023-05-20T23:12:31;12.17;;;6.90;;
5157;SDS011;2598;52.364;9.772;2023-05-20T23:14:57;11.00;;;6.80;;
5157;SDS011;2598;52.364;9.772;2023-05-20T23:17:23;10.33;;;6.57;;
5157;SDS011;2598;52.364;9.772;2023-05-20T23:19:49;14.83;;;6.40;;
5157;SDS011;2598;52.364;9.772;2023-05-20T23:22:15;9.97;;;5.83;;
5157;SDS011;2598;52.364;9.772;2023-05-20T23:24:41;9.70;;;6.70;;
5157;SDS011;2598;52.364;9.772;2023-05-20T23:27:07;10.63;;;7.07;;
5157;SDS011;2598;52.364;9.772;2023-05-20T23:29:33;10.47;;;6.77;;
5157;SDS011;2598;52.364;9.772;2023-05-20T23:31:59;11.27;;;7.20;;
5157;SDS011;2598;52.364;9.772;2023-05-20T23:34:25;8.13;;;5.50;;
5157;SDS011;2598;52.364;9.772;2023-05-20T23:36:51;9.30;;;6.10;;
5157;SDS011;2598;52.364;9.772;2023-05-20T23:39:17;10.20;;;5.70;;
5157;SDS011;2598;52.364;9.772;2023-05-20T23:41:43;11.90;;;5.70;;
5157;SDS011;2598;52.364;9.772;2023-05-20T23:44:08;9.90;;;6.10;;
5157;SDS011;2598;52.364;9.772;2023-05-20T23:46:34;10.53;;;6.73;;
5157;SDS011;2598;52.364;9.772;2023-05-20T23:49:01;10.60;;;6.47;;
5157;SDS011;2598;52.364;9.772;2023-05-20T23:51:27;8.33;;;5.70;;
5157;SDS011;2598;52.364;9.772;2023-05-20T23:53:53;10.90;;;6.40;;
5157;SDS011;2598;52.364;9.772;2023-05-20T23:56:19;10.30;;;6.37;;
5157;SDS011;2598;52.364;9.772;2023-05-20T23:58:45;10.63;;;5.90;;
